Time;durP1;ratioP1;P1;durP2;ratioP2;P2;SDS_P1;SDS_P2;PMS_P1;PMS_P2;Temp;Humidity;BMP_temperature;BMP_pressure;BME280_temperature;BME280_humidity;BME280_pressure;Samples;Min_cycle;Max_cycle;Signal;HPM_P1;HPM_P2
2021/10/17 00:01:24;;;;;;;24.38;8.88;;;;;;;10.88;74.37;100270.31;4998326;28;20046;-50
2021/10/17 00:03:51;;;;;;;18.05;7.80;;;;;;;10.91;74.33;100261.69;4984830;28;20081;-51
2021/10/17 00:06:17;;;;;;;21.75;7.97;;;;;;;10.92;74.04;100263.41;4985560;28;20050;-53
2021/10/17 00:08:45;;;;;;;20.40;8.48;;;;;;;10.94;74.98;100259.06;4993029;28;20050;-52
2021/10/17 00:11:11;;;;;;;22.13;8.20;;;;;;;10.97;74.06;100261.66;4992082;28;20050;-51
2021/10/17 00:13:38;;;;;;;19.15;7.68;;;;;;;10.99;74.14;100259.06;4990948;28;20054;-53
2021/10/17 00:16:05;;;;;;;19.13;7.07;;;;;;;11.01;74.18;100254.78;4984653;28;20098;-52
2021/10/17 00:18:32;;;;;;;18.90;7.78;;;;;;;11.01;74.76;100247.00;4985988;28;20066;-53
2021/10/17 00:20:59;;;;;;;15.90;7.20;;;;;;;11.04;74.43;100246.97;4988516;28;20054;-52
2021/10/17 00:23:25;;;;;;;17.02;7.47;;;;;;;11.06;74.57;100245.25;4989437;28;20398;-53
2021/10/17 00:25:52;;;;;;;15.63;6.40;;;;;;;11.08;74.94;100242.66;4987004;28;20105;-52
2021/10/17 00:28:19;;;;;;;16.70;7.38;;;;;;;11.09;74.86;100242.66;4984761;28;20101;-50
2021/10/17 00:30:46;;;;;;;23.38;6.72;;;;;;;11.11;74.75;100250.44;4987507;28;20803;-50
2021/10/17 00:33:13;;;;;;;16.13;6.53;;;;;;;11.11;74.42;100242.66;4981627;28;20125;-50
2021/10/17 00:35:40;;;;;;;17.98;7.03;;;;;;;11.14;74.91;100240.91;4984885;28;20133;-50
2021/10/17 00:38:07;;;;;;;17.23;6.93;;;;;;;11.12;74.39;100234.88;4988251;28;20046;-53
2021/10/17 00:40:34;;;;;;;18.92;7.30;;;;;;;11.14;74.25;100242.63;4991856;28;20050;-50
2021/10/17 00:43:01;;;;;;;20.13;7.18;;;;;;;11.13;74.58;100235.72;4987997;28;20050;-50
2021/10/17 00:45:30;;;;;;;15.70;6.85;;;;;;;11.12;74.49;100239.19;4990275;28;20047;-52
2021/10/17 00:47:58;;;;;;;16.55;5.70;;;;;;;11.11;74.69;100235.72;4995198;28;20400;-50
2021/10/17 00:50:26;;;;;;;15.15;6.47;;;;;;;11.10;74.10;100235.72;4988972;28;20042;-52
2021/10/17 00:52:53;;;;;;;18.17;6.72;;;;;;;11.10;74.95;100233.13;4997828;28;20042;-52
2021/10/17 00:55:22;;;;;;;18.63;6.80;;;;;;;11.11;74.30;100232.28;4993022;28;20062;-52
2021/10/17 00:57:49;;;;;;;16.20;6.47;;;;;;;11.09;74.61;100234.00;4993522;28;20399;-52
2021/10/17 01:00:16;;;;;;;15.10;6.18;;;;;;;11.09;74.06;100232.28;4996977;28;20485;-53
2021/10/17 01:02:43;;;;;;;15.18;6.10;;;;;;;11.09;74.00;100234.00;4988895;28;20053;-51
2021/10/17 01:05:13;;;;;;;14.50;6.15;;;;;;;11.07;74.23;100225.38;4993682;28;20078;-52
2021/10/17 01:07:41;;;;;;;15.85;6.43;;;;;;;11.04;73.95;100229.69;4990466;28;20039;-53
2021/10/17 01:10:08;;;;;;;19.15;6.43;;;;;;;11.03;75.08;100225.38;4995714;28;20430;-51
2021/10/17 01:12:34;;;;;;;16.67;6.22;;;;;;;10.99;74.91;100218.50;4990695;28;20050;-51
2021/10/17 01:15:01;;;;;;;13.00;5.88;;;;;;;10.98;75.37;100224.50;4989344;28;20058;-52
2021/10/17 01:17:28;;;;;;;15.30;6.38;;;;;;;10.97;74.71;100229.72;4992480;28;20109;-54
2021/10/17 01:19:55;;;;;;;13.90;5.80;;;;;;;10.96;74.66;100220.19;4988875;28;20052;-55
2021/10/17 01:22:24;;;;;;;17.85;7.03;;;;;;;10.94;74.91;100215.03;5000696;28;20066;-51
2021/10/17 01:24:52;;;;;;;15.35;7.70;;;;;;;10.96;74.85;100213.31;4993683;28;20451;-55
2021/10/17 01:27:19;;;;;;;16.02;7.05;;;;;;;10.96;75.43;100212.44;4994015;28;20058;-51
2021/10/17 01:29:47;;;;;;;12.80;5.95;;;;;;;10.97;75.50;100206.41;4990403;28;20050;-52
2021/10/17 01:32:14;;;;;;;17.25;6.57;;;;;;;10.98;75.37;100211.56;4989393;28;20061;-52
2021/10/17 01:34:41;;;;;;;19.42;7.30;;;;;;;10.98;75.22;100201.19;5000646;28;20522;-53
2021/10/17 01:37:07;;;;;;;21.30;7.97;;;;;;;10.97;75.28;100199.47;4987394;28;20050;-53
2021/10/17 01:39:34;;;;;;;19.42;6.90;;;;;;;10.97;74.73;100199.47;5001960;28;20054;-51
2021/10/17 01:42:01;;;;;;;15.85;7.10;;;;;;;10.96;74.53;100207.25;4993926;28;20058;-50
2021/10/17 01:44:30;;;;;;;23.73;7.72;;;;;;;10.95;74.42;100201.22;4992034;28;20116;-51
2021/10/17 01:46:58;;;;;;;18.67;6.55;;;;;;;10.93;74.67;100200.34;4989080;28;20054;-54
2021/10/17 01:49:25;;;;;;;19.90;8.02;;;;;;;10.92;75.43;100196.03;4985366;28;20487;-54
2021/10/17 01:51:52;;;;;;;18.15;6.97;;;;;;;10.92;75.49;100196.03;4988713;28;20062;-54
2021/10/17 01:54:19;;;;;;;20.63;7.97;;;;;;;10.91;75.71;100200.34;4992714;28;20683;-54
2021/10/17 01:56:45;;;;;;;21.73;7.68;;;;;;;10.91;75.46;100189.97;4990070;28;20491;-51
2021/10/17 01:59:12;;;;;;;21.75;7.88;;;;;;;10.94;75.15;100199.47;4982530;28;20120;-54
2021/10/17 02:01:38;;;;;;;22.15;7.70;;;;;;;10.92;75.50;100188.25;4990991;28;20116;-55
2021/10/17 02:04:05;;;;;;;22.15;8.00;;;;;;;10.93;75.36;100192.56;4989383;28;20076;-54
2021/10/17 02:06:32;;;;;;;22.33;8.23;;;;;;;10.95;75.66;100190.84;4992064;28;20153;-51
2021/10/17 02:09:00;;;;;;;20.92;8.23;;;;;;;10.98;75.57;100190.81;4987597;28;20054;-52
2021/10/17 02:11:27;;;;;;;21.95;8.40;;;;;;;10.99;75.36;100182.19;4986838;28;20065;-54
2021/10/17 02:13:54;;;;;;;21.92;8.68;;;;;;;11.01;75.91;100174.44;4985027;28;20380;-54
2021/10/17 02:16:20;;;;;;;19.33;8.60;;;;;;;11.01;76.64;100174.44;4986431;28;20060;-54
2021/10/17 02:18:47;;;;;;;28.08;9.55;;;;;;;11.04;76.56;100175.25;4986050;28;20058;-54
2021/10/17 02:21:14;;;;;;;25.88;9.65;;;;;;;11.05;75.95;100170.97;4992197;28;20132;-54
2021/10/17 02:23:40;;;;;;;25.42;9.15;;;;;;;11.07;75.99;100179.56;4991448;28;20050;-52
2021/10/17 02:26:07;;;;;;;24.98;9.35;;;;;;;11.10;76.33;100174.38;4998107;28;20103;-51
2021/10/17 02:28:34;;;;;;;31.02;10.38;;;;;;;11.11;75.61;100175.25;4987927;28;20066;-51
2021/10/17 02:31:01;;;;;;;27.95;9.32;;;;;;;11.11;76.33;100181.28;4991413;28;20050;-54
2021/10/17 02:33:28;;;;;;;26.42;10.57;;;;;;;11.14;76.59;100180.41;4987859;28;20383;-50
2021/10/17 02:35:54;;;;;;;30.63;9.82;;;;;;;11.14;75.86;100181.28;4988875;28;20104;-51
2021/10/17 02:38:21;;;;;;;26.48;9.93;;;;;;;11.15;76.03;100171.78;4995906;28;20073;-50
2021/10/17 02:40:49;;;;;;;28.08;10.07;;;;;;;11.18;76.03;100180.41;4998678;28;20518;-50
2021/10/17 02:43:15;;;;;;;26.15;8.93;;;;;;;11.22;76.21;100177.81;4998202;28;20050;-51
2021/10/17 02:45:42;;;;;;;26.65;9.18;;;;;;;11.21;76.28;100171.75;4987909;28;20046;-54
2021/10/17 02:48:09;;;;;;;33.60;10.48;;;;;;;11.23;75.75;100175.22;4997766;28;20076;-52
2021/10/17 02:50:35;;;;;;;27.58;10.10;;;;;;;11.25;75.38;100172.63;4989069;28;20537;-51
2021/10/17 02:53:02;;;;;;;29.13;10.13;;;;;;;11.26;76.30;100167.44;4993533;28;20100;-52
2021/10/17 02:55:29;;;;;;;30.10;10.05;;;;;;;11.27;75.68;100161.38;4991168;28;20053;-54
2021/10/17 02:57:55;;;;;;;31.83;10.57;;;;;;;11.27;76.43;100161.38;4987702;28;20050;-51
2021/10/17 03:00:22;;;;;;;27.67;10.60;;;;;;;11.27;75.61;100161.38;4988143;28;20097;-51
2021/10/17 03:02:48;;;;;;;32.00;10.73;;;;;;;11.27;75.93;100161.38;4986584;28;20479;-53
2021/10/17 03:05:15;;;;;;;28.25;10.43;;;;;;;11.26;76.17;100164.84;4998274;28;20046;-51
2021/10/17 03:07:42;;;;;;;28.73;9.73;;;;;;;11.28;76.19;100160.50;4989680;28;20057;-53
2021/10/17 03:10:09;;;;;;;33.45;10.25;;;;;;;11.31;76.06;100164.81;4989421;28;20097;-51
2021/10/17 03:12:36;;;;;;;29.33;10.82;;;;;;;11.32;76.38;100163.97;4987102;28;20049;-51
2021/10/17 03:15:06;;;;;;;29.83;10.07;;;;;;;11.31;76.49;100157.91;4991069;28;20065;-55
2021/10/17 03:17:33;;;;;;;26.50;9.27;;;;;;;11.34;76.13;100157.00;4992843;28;20053;-53
2021/10/17 03:20:00;;;;;;;30.75;9.90;;;;;;;11.35;75.58;100155.31;4986744;28;20577;-52
2021/10/17 03:22:29;;;;;;;26.42;10.27;;;;;;;11.35;76.49;100160.47;5001586;28;20096;-53
2021/10/17 03:24:56;;;;;;;27.10;9.55;;;;;;;11.35;75.50;100155.31;4987246;28;20046;-54
2021/10/17 03:27:22;;;;;;;27.77;9.27;;;;;;;11.36;75.57;100152.69;4993328;28;20078;-53
2021/10/17 03:29:49;;;;;;;32.00;10.25;;;;;;;11.37;75.66;100146.63;4997750;28;20636;-55
2021/10/17 03:32:16;;;;;;;27.35;9.93;;;;;;;11.39;76.65;100151.81;4990854;28;20104;-54
2021/10/17 03:34:43;;;;;;;28.15;10.90;;;;;;;11.42;75.62;100154.41;4992475;28;20043;-55
2021/10/17 03:37:09;;;;;;;26.60;8.73;;;;;;;11.43;75.74;100148.34;4986001;28;20108;-54
2021/10/17 03:39:36;;;;;;;33.15;9.90;;;;;;;11.44;76.23;100152.66;4987117;28;20096;-53
2021/10/17 03:42:02;;;;;;;21.83;8.98;;;;;;;11.46;75.65;100161.31;4986299;28;20407;-54
2021/10/17 03:44:29;;;;;;;26.05;8.82;;;;;;;11.49;75.44;100160.41;4988759;28;20482;-53
2021/10/17 03:46:56;;;;;;;21.38;7.80;;;;;;;11.50;76.42;100163.00;4994517;28;20579;-54
2021/10/17 03:49:22;;;;;;;22.95;7.88;;;;;;;11.51;76.36;100161.25;4988907;28;20051;-51
2021/10/17 03:51:49;;;;;;;27.15;8.25;;;;;;;11.53;75.96;100154.34;4997059;28;20670;-55
2021/10/17 03:54:16;;;;;;;23.55;8.30;;;;;;;11.55;75.65;100150.03;4986017;28;20050;-55
2021/10/17 03:56:42;;;;;;;23.08;9.02;;;;;;;11.56;76.46;100147.41;4989145;28;20042;-53
2021/10/17 03:59:09;;;;;;;24.33;8.25;;;;;;;11.56;76.33;100142.22;4987673;28;20050;-51
2021/10/17 04:01:35;;;;;;;23.02;8.15;;;;;;;11.60;76.08;100142.19;4993351;28;20483;-51
2021/10/17 04:04:02;;;;;;;22.40;7.60;;;;;;;11.62;76.48;100145.66;4994315;28;20084;-51
2021/10/17 04:06:29;;;;;;;26.20;8.90;;;;;;;11.64;75.89;100143.91;4988152;28;21077;-51
2021/10/17 04:08:56;;;;;;;23.45;8.95;;;;;;;11.66;76.26;100152.56;4992085;28;20717;-51
2021/10/17 04:11:22;;;;;;;23.08;8.30;;;;;;;11.67;76.85;100146.47;4988333;28;20085;-51
2021/10/17 04:13:49;;;;;;;24.25;8.63;;;;;;;11.69;77.04;100147.34;4992296;28;20054;-52
2021/10/17 04:16:15;;;;;;;30.00;8.77;;;;;;;11.70;76.95;100144.75;4991050;28;20097;-52
2021/10/17 04:18:42;;;;;;;29.08;7.75;;;;;;;11.72;76.97;100152.50;4995660;28;20074;-51
2021/10/17 04:21:09;;;;;;;27.67;8.43;;;;;;;11.73;77.03;100151.66;4992675;28;20070;-51
2021/10/17 04:23:35;;;;;;;24.70;8.43;;;;;;;11.75;76.86;100149.06;4993062;28;20081;-52
2021/10/17 04:26:02;;;;;;;24.63;8.57;;;;;;;11.76;76.98;100149.00;4993220;28;20120;-54
2021/10/17 04:28:28;;;;;;;23.60;8.68;;;;;;;11.78;76.48;100146.41;4990797;28;20051;-53
2021/10/17 04:30:55;;;;;;;23.35;9.02;;;;;;;11.78;76.10;100138.63;4992548;28;20487;-53
2021/10/17 04:33:22;;;;;;;25.65;9.15;;;;;;;11.78;76.19;100142.09;4995480;28;20082;-55
2021/10/17 04:35:48;;;;;;;27.55;9.30;;;;;;;11.80;76.25;100135.19;4996165;28;20110;-50
2021/10/17 04:38:15;;;;;;;26.98;8.55;;;;;;;11.79;76.68;100128.25;4994701;28;20478;-54
2021/10/17 04:40:43;;;;;;;23.20;8.52;;;;;;;11.79;77.01;100133.44;4990406;28;20459;-55
2021/10/17 04:43:11;;;;;;;26.85;8.50;;;;;;;11.80;77.25;100130.00;5001677;28;20116;-53
2021/10/17 04:45:42;;;;;;;23.80;8.38;;;;;;;11.80;77.19;100130.00;4991934;28;20105;-54
2021/10/17 04:48:08;;;;;;;26.10;9.18;;;;;;;11.80;76.36;100113.53;4996266;28;20104;-52
2021/10/17 04:50:36;;;;;;;28.23;8.93;;;;;;;11.80;77.25;100119.59;4990532;28;20533;-52
2021/10/17 04:53:03;;;;;;;28.23;9.38;;;;;;;11.79;76.37;100110.06;4990294;28;20453;-51
2021/10/17 04:55:30;;;;;;;24.08;9.05;;;;;;;11.76;76.63;100111.84;4989971;28;20050;-52
2021/10/17 04:57:57;;;;;;;30.27;8.65;;;;;;;11.79;77.41;100110.06;4990714;28;20050;-54
2021/10/17 05:00:24;;;;;;;25.77;9.40;;;;;;;11.78;77.02;100100.56;4989741;28;20097;-55
2021/10/17 05:02:50;;;;;;;30.08;8.95;;;;;;;11.78;77.70;100100.56;4991366;28;20038;-54
2021/10/17 05:05:17;;;;;;;27.48;9.65;;;;;;;11.78;77.53;100099.69;4995240;28;20054;-54
2021/10/17 05:07:44;;;;;;;25.08;8.90;;;;;;;11.78;76.97;100103.16;4985541;28;20553;-54
2021/10/17 05:10:10;;;;;;;24.17;9.13;;;;;;;11.79;76.85;100096.25;4990729;28;20498;-52
2021/10/17 05:12:37;;;;;;;27.02;9.23;;;;;;;11.80;77.77;100098.84;4996636;28;20046;-53
2021/10/17 05:15:04;;;;;;;25.25;9.18;;;;;;;11.82;77.42;100094.50;4989186;28;20174;-51
2021/10/17 05:17:31;;;;;;;23.15;9.02;;;;;;;11.83;77.06;100093.63;4991784;28;20081;-53
2021/10/17 05:19:57;;;;;;;26.92;9.30;;;;;;;11.84;76.84;100084.09;4991947;28;20096;-50
2021/10/17 05:22:24;;;;;;;28.75;9.05;;;;;;;11.86;77.76;100081.50;4993995;28;20100;-51
2021/10/17 05:24:51;;;;;;;28.35;10.75;;;;;;;11.86;77.20;100084.09;4987574;28;20090;-53
2021/10/17 05:27:17;;;;;;;29.83;9.43;;;;;;;11.87;77.87;100078.03;4991541;28;20124;-52
2021/10/17 05:29:44;;;;;;;21.60;8.02;;;;;;;11.88;77.70;100080.59;4995723;28;20112;-52
2021/10/17 05:32:10;;;;;;;26.20;9.02;;;;;;;11.89;77.23;100077.13;4992149;28;20046;-52
2021/10/17 05:34:37;;;;;;;26.38;10.13;;;;;;;11.90;77.36;100078.88;5003052;28;20058;-54
2021/10/17 05:37:03;;;;;;;27.50;10.07;;;;;;;11.91;76.75;100085.78;4989258;28;20058;-54
2021/10/17 05:39:30;;;;;;;24.75;9.63;;;;;;;11.93;76.58;100078.81;4996094;28;20353;-54
2021/10/17 05:41:57;;;;;;;25.83;9.13;;;;;;;11.94;76.81;100079.69;4990540;28;20131;-54
2021/10/17 05:44:23;;;;;;;27.25;9.75;;;;;;;11.94;77.49;100084.88;4997264;28;20104;-53
2021/10/17 05:46:50;;;;;;;29.73;9.23;;;;;;;11.96;76.70;100083.16;4991633;28;20663;-54
2021/10/17 05:49:16;;;;;;;25.92;9.35;;;;;;;11.95;78.03;100089.19;4989556;28;20878;-54
2021/10/17 05:51:43;;;;;;;27.83;8.98;;;;;;;11.98;77.29;100093.50;4995980;28;20042;-54
2021/10/17 05:54:10;;;;;;;31.15;9.82;;;;;;;11.97;77.12;100090.06;4990385;28;20046;-51
2021/10/17 05:56:36;;;;;;;23.90;8.85;;;;;;;11.99;77.79;100093.50;4997163;28;20081;-54
2021/10/17 05:59:03;;;;;;;31.27;11.27;;;;;;;12.00;77.72;100096.97;4988377;28;20046;-53
2021/10/17 06:01:30;;;;;;;29.52;10.60;;;;;;;12.00;77.80;100090.03;4992367;28;20522;-51
2021/10/17 06:03:56;;;;;;;25.13;8.80;;;;;;;12.00;78.19;100076.19;4991324;28;20093;-52
2021/10/17 06:06:23;;;;;;;24.52;8.82;;;;;;;11.98;77.24;100071.00;4986770;28;20145;-54
2021/10/17 06:08:49;;;;;;;32.22;10.77;;;;;;;11.99;77.45;100072.72;4996528;28;20046;-51
2021/10/17 06:11:16;;;;;;;24.77;9.50;;;;;;;12.00;78.39;100064.09;4988270;28;20046;-52
2021/10/17 06:13:42;;;;;;;28.42;10.40;;;;;;;12.02;78.09;100075.31;4995344;28;20577;-54
2021/10/17 06:16:09;;;;;;;29.38;10.10;;;;;;;12.00;77.75;100077.06;4993584;28;20108;-52
2021/10/17 06:18:36;;;;;;;30.08;10.13;;;;;;;12.02;78.19;100072.72;4998896;28;20097;-51
2021/10/17 06:21:02;;;;;;;23.42;9.40;;;;;;;12.04;77.66;100080.50;4992283;28;20446;-54
2021/10/17 06:23:29;;;;;;;32.03;10.15;;;;;;;12.03;77.52;100079.63;4989240;28;20050;-54
2021/10/17 06:25:55;;;;;;;28.45;10.35;;;;;;;12.03;77.37;100074.41;4990723;28;20077;-53
2021/10/17 06:28:22;;;;;;;26.85;9.32;;;;;;;12.07;78.01;100076.19;4990988;28;20054;-53
2021/10/17 06:30:49;;;;;;;33.28;10.18;;;;;;;12.05;77.48;100083.06;4996465;28;20461;-53
2021/10/17 06:33:15;;;;;;;36.20;11.27;;;;;;;12.06;78.20;100079.63;4988000;28;20062;-50
2021/10/17 06:35:42;;;;;;;26.13;10.38;;;;;;;12.06;76.85;100084.81;4987554;28;20050;-51
2021/10/17 06:38:09;;;;;;;30.50;10.60;;;;;;;12.07;77.67;100081.38;4988198;28;20058;-52
2021/10/17 06:40:36;;;;;;;26.67;9.80;;;;;;;12.06;77.93;100077.03;4988208;28;20189;-51
2021/10/17 06:43:03;;;;;;;33.17;10.70;;;;;;;12.07;77.32;100085.69;4997317;28;20054;-52
2021/10/17 06:45:30;;;;;;;28.98;10.70;;;;;;;12.06;77.21;100084.81;4990875;28;20049;-51
2021/10/17 06:47:56;;;;;;;29.55;10.57;;;;;;;12.08;78.09;100087.41;4992292;28;20054;-50
2021/10/17 06:50:23;;;;;;;33.05;12.52;;;;;;;12.07;77.49;100085.69;4994551;28;20146;-51
2021/10/17 06:52:50;;;;;;;31.23;10.52;;;;;;;12.10;78.39;100080.47;4989826;28;20050;-51
2021/10/17 06:55:18;;;;;;;31.95;10.63;;;;;;;12.11;77.31;100086.50;4991924;28;20045;-51
2021/10/17 06:57:45;;;;;;;31.85;10.98;;;;;;;12.10;78.59;100085.69;4985942;28;20058;-50
2021/10/17 07:00:12;;;;;;;31.23;10.02;;;;;;;12.11;77.67;100081.31;4994931;28;20054;-51
2021/10/17 07:02:39;;;;;;;29.15;10.32;;;;;;;12.12;77.36;100093.44;4987597;28;20058;-51
2021/10/17 07:05:06;;;;;;;31.35;11.55;;;;;;;12.11;78.34;100086.50;4989562;28;20054;-54
2021/10/17 07:07:33;;;;;;;31.90;11.63;;;;;;;12.12;78.21;100104.69;4994892;28;20049;-53
2021/10/17 07:10:00;;;;;;;31.48;10.77;;;;;;;12.14;77.76;100091.69;4985917;28;20454;-52
2021/10/17 07:12:27;;;;;;;31.27;11.35;;;;;;;12.13;78.68;100096.00;4996141;28;20476;-54
2021/10/17 07:14:54;;;;;;;33.15;11.93;;;;;;;12.16;77.47;100095.16;4992493;28;20450;-53
2021/10/17 07:17:21;;;;;;;35.28;12.35;;;;;;;12.17;77.94;100096.84;4986154;28;20674;-53
2021/10/17 07:19:48;;;;;;;29.40;10.80;;;;;;;12.16;78.12;100095.16;4987931;28;20054;-54
2021/10/17 07:22:15;;;;;;;32.03;11.82;;;;;;;12.18;78.16;100093.38;4995572;28;20058;-50
2021/10/17 07:24:42;;;;;;;25.90;10.48;;;;;;;12.20;77.70;100096.84;4987111;28;20666;-51
2021/10/17 07:27:08;;;;;;;31.88;11.30;;;;;;;12.18;78.39;100094.25;4987814;28;20058;-51
2021/10/17 07:29:35;;;;;;;29.58;10.18;;;;;;;12.21;77.80;100089.03;4985332;28;20066;-51
2021/10/17 07:32:02;;;;;;;32.35;10.88;;;;;;;12.24;78.96;100093.34;4988251;28;20077;-51
2021/10/17 07:34:28;;;;;;;29.55;10.90;;;;;;;12.25;78.11;100095.06;4988056;28;20058;-53
2021/10/17 07:36:55;;;;;;;33.42;11.48;;;;;;;12.26;77.66;100104.56;4982096;28;20047;-51
2021/10/17 07:39:22;;;;;;;26.75;10.32;;;;;;;12.29;78.56;100108.88;4987029;28;20097;-50
2021/10/17 07:41:48;;;;;;;34.72;12.70;;;;;;;12.30;77.72;100108.84;4982862;28;20051;-51
2021/10/17 07:44:16;;;;;;;32.05;11.20;;;;;;;12.32;78.70;100104.50;4987732;28;20117;-54
2021/10/17 07:46:43;;;;;;;29.17;11.43;;;;;;;12.34;77.77;100110.53;4985706;28;20441;-51
2021/10/17 07:49:10;;;;;;;33.47;11.40;;;;;;;12.34;78.41;100105.34;4997299;28;20370;-52
2021/10/17 07:51:37;;;;;;;29.02;10.63;;;;;;;12.38;78.32;100110.50;4989044;28;20058;-54
2021/10/17 07:54:04;;;;;;;31.70;11.18;;;;;;;12.40;77.77;100119.16;4986493;28;20042;-54
2021/10/17 07:56:31;;;;;;;30.95;10.80;;;;;;;12.43;78.66;100113.97;4982787;28;20042;-51
2021/10/17 07:58:58;;;;;;;33.83;11.23;;;;;;;12.44;78.56;100113.06;4984354;28;20054;-51
2021/10/17 08:01:25;;;;;;;33.90;11.45;;;;;;;12.45;78.83;100112.19;4981155;28;20621;-53
2021/10/17 08:03:52;;;;;;;31.55;11.43;;;;;;;12.49;78.14;100116.47;4987167;28;20046;-52
2021/10/17 08:06:18;;;;;;;32.25;11.45;;;;;;;12.51;77.77;100112.13;4985004;28;20050;-50
2021/10/17 08:08:45;;;;;;;30.23;12.25;;;;;;;12.49;79.29;100113.88;4983296;28;20057;-53
2021/10/17 08:11:12;;;;;;;32.88;11.73;;;;;;;12.56;78.45;100119.88;4985081;28;20057;-50
2021/10/17 08:13:39;;;;;;;34.75;12.15;;;;;;;12.58;78.21;100121.59;4983330;28;20050;-51
2021/10/17 08:16:06;;;;;;;31.65;11.50;;;;;;;12.62;77.97;100119.81;4985579;28;20049;-51
2021/10/17 08:18:32;;;;;;;31.42;11.23;;;;;;;12.65;78.07;100124.13;4985271;28;20110;-51
2021/10/17 08:20:59;;;;;;;29.33;11.50;;;;;;;12.67;77.41;100127.56;4985817;28;20050;-51
2021/10/17 08:23:26;;;;;;;27.33;10.85;;;;;;;12.69;78.53;100115.41;4985307;28;20045;-55
2021/10/17 08:25:53;;;;;;;33.78;12.18;;;;;;;12.70;77.65;100122.34;4986718;28;20116;-54
2021/10/17 08:28:19;;;;;;;33.88;11.90;;;;;;;12.72;78.55;100123.19;4985123;28;20046;-53
2021/10/17 08:30:48;;;;;;;31.58;12.00;;;;;;;12.75;78.70;100120.56;4984431;28;20046;-54
2021/10/17 08:33:15;;;;;;;30.95;10.77;;;;;;;12.78;78.32;100123.13;4983962;28;20071;-52
2021/10/17 08:35:44;;;;;;;29.02;11.13;;;;;;;12.84;78.53;100124.81;4987684;28;20050;-50
2021/10/17 08:38:10;;;;;;;28.90;11.43;;;;;;;12.90;77.96;100123.88;4994502;28;20042;-53
2021/10/17 08:40:39;;;;;;;30.63;11.77;;;;;;;12.95;77.12;100117.75;4985906;28;20062;-51
2021/10/17 08:43:06;;;;;;;31.67;11.43;;;;;;;13.00;78.04;100117.66;4984079;28;20058;-50
2021/10/17 08:45:33;;;;;;;30.17;12.15;;;;;;;13.05;78.38;100118.50;4982646;28;20066;-51
2021/10/17 08:48:01;;;;;;;33.00;12.30;;;;;;;13.10;77.16;100121.03;4989025;28;20058;-51
2021/10/17 08:50:28;;;;;;;31.90;12.38;;;;;;;13.17;77.63;100127.03;4982140;28;20105;-52
2021/10/17 08:52:54;;;;;;;29.13;12.07;;;;;;;13.21;77.94;100123.50;4981395;28;20054;-50
2021/10/17 08:55:21;;;;;;;28.35;11.32;;;;;;;13.24;78.14;100128.66;4981659;28;20046;-54
2021/10/17 08:57:52;;;;;;;30.17;11.43;;;;;;;13.27;78.10;100123.41;4990899;28;20054;-50
2021/10/17 09:00:35;;;;;;;32.10;11.68;;;;;;;13.27;78.37;100123.41;4987437;28;20495;-50
2021/10/17 09:03:02;;;;;;;30.67;11.20;;;;;;;13.30;76.98;100123.38;4987299;28;21745;-51
2021/10/17 09:05:40;;;;;;;26.95;11.05;;;;;;;13.30;78.02;100133.78;4988054;28;20050;-52
2021/10/17 09:08:08;;;;;;;27.20;11.38;;;;;;;13.33;77.01;100123.34;4987151;28;20120;-51
2021/10/17 09:10:36;;;;;;;28.13;11.60;;;;;;;13.36;77.53;100128.50;4986059;28;20073;-54
2021/10/17 09:13:14;;;;;;;26.95;11.50;;;;;;;13.36;77.00;100123.31;4987102;28;20066;-51
2021/10/17 09:15:43;;;;;;;27.05;11.57;;;;;;;13.42;76.73;100126.69;4988180;28;20042;-51
2021/10/17 09:18:26;;;;;;;29.83;11.15;;;;;;;13.42;77.03;100124.09;4990028;28;20054;-54
2021/10/17 09:20:59;;;;;;;28.02;11.95;;;;;;;13.45;77.73;100126.66;4989036;28;20050;-54
2021/10/17 09:23:35;;;;;;;27.65;12.23;;;;;;;13.45;76.79;100126.66;4993158;28;20453;-53
2021/10/17 09:26:12;;;;;;;28.30;12.00;;;;;;;13.44;76.40;100130.16;4981701;28;20513;-52
2021/10/17 09:28:40;;;;;;;26.27;11.07;;;;;;;13.45;76.32;100127.50;4993834;28;20049;-53
2021/10/17 09:31:14;;;;;;;25.20;10.75;;;;;;;13.44;77.37;100131.00;4988968;28;20469;-53
2021/10/17 09:33:47;;;;;;;24.02;11.63;;;;;;;13.45;76.67;100131.88;4993449;28;20737;-52
2021/10/17 09:36:21;;;;;;;27.40;12.05;;;;;;;13.41;77.57;100132.78;4988709;28;20046;-51
2021/10/17 09:38:52;;;;;;;28.10;11.73;;;;;;;13.42;77.21;100131.91;4986844;28;20085;-50
2021/10/17 09:41:24;;;;;;;26.02;11.32;;;;;;;13.45;77.54;100126.66;4989994;28;20688;-50
2021/10/17 09:43:53;;;;;;;32.00;13.35;;;;;;;13.50;76.96;100127.50;4986899;28;20055;-50
2021/10/17 09:46:19;;;;;;;26.05;11.05;;;;;;;13.58;77.42;100130.84;4982416;28;20487;-54
2021/10/17 09:48:47;;;;;;;25.83;11.65;;;;;;;13.68;76.67;100133.34;4984722;28;20058;-52
2021/10/17 09:51:17;;;;;;;25.52;11.50;;;;;;;13.79;77.57;100139.25;4984403;28;20050;-54
2021/10/17 09:53:48;;;;;;;27.02;11.25;;;;;;;13.92;76.08;100146.88;4985399;28;20085;-52
2021/10/17 09:56:35;;;;;;;28.13;11.57;;;;;;;13.97;75.93;100150.25;4984436;28;20054;-52
2021/10/17 09:59:04;;;;;;;24.17;10.80;;;;;;;14.04;76.25;100148.41;4984093;28;20061;-54
2021/10/17 10:01:31;;;;;;;25.42;11.30;;;;;;;14.04;76.39;100138.88;4983991;28;20045;-53
2021/10/17 10:04:00;;;;;;;28.70;11.27;;;;;;;14.06;76.37;100150.13;4992992;28;20089;-54
2021/10/17 10:06:28;;;;;;;27.15;11.63;;;;;;;14.11;76.44;100142.22;4985266;28;20054;-52
2021/10/17 10:08:58;;;;;;;27.10;11.43;;;;;;;14.17;75.75;100143.88;4993964;28;20042;-53
2021/10/17 10:11:26;;;;;;;24.55;10.65;;;;;;;14.21;75.56;100145.53;4990070;28;20122;-52
2021/10/17 10:13:56;;;;;;;22.88;10.65;;;;;;;14.27;76.14;100148.06;4994594;28;20085;-52
2021/10/17 10:16:23;;;;;;;;;;;;;;;14.19;76.38;100155.13;4996236;28;20437;-54
2021/10/17 10:18:56;;;;;;;21.58;10.00;;;;;;;14.28;75.38;100154.97;4989050;28;20362;-54
2021/10/17 10:21:23;;;;;;;21.85;10.02;;;;;;;14.27;74.91;100155.88;4998226;28;20403;-54
2021/10/17 10:23:52;;;;;;;22.63;10.98;;;;;;;14.27;74.79;100156.75;4989882;28;20046;-52
2021/10/17 10:26:21;;;;;;;19.88;9.55;;;;;;;14.27;75.56;100163.69;4989363;28;20046;-55
2021/10/17 10:28:50;;;;;;;27.13;11.18;;;;;;;14.27;74.81;100153.25;4995910;28;20054;-52
2021/10/17 10:31:44;;;;;;;21.77;10.73;;;;;;;14.25;75.71;100161.09;4996876;28;20050;-54
2021/10/17 10:34:48;;;;;;;25.45;11.90;;;;;;;14.30;75.53;100168.84;4991051;28;20054;-54
2021/10/17 10:37:18;;;;;;;23.33;10.13;;;;;;;14.39;75.44;100163.47;4985896;28;20050;-52
2021/10/17 10:40:07;;;;;;;24.40;11.20;;;;;;;14.39;75.28;100167.84;4991236;28;20046;-54
2021/10/17 10:42:37;;;;;;;24.77;11.07;;;;;;;14.40;75.26;100159.13;4992983;28;20045;-51
2021/10/17 10:45:33;;;;;;;21.98;10.00;;;;;;;14.38;75.69;100166.97;4988906;28;20121;-49
2021/10/17 10:48:15;;;;;;;;;;;;;;;14.32;75.21;100171.44;4999836;28;20080;-49
2021/10/17 10:50:53;;;;;;;23.77;9.98;;;;;;;14.39;74.76;100168.69;4983666;28;19945;-53
2021/10/17 10:53:45;;;;;;;23.35;11.45;;;;;;;14.35;75.34;100171.34;4987715;28;20498;-49
2021/10/17 10:56:40;;;;;;;21.58;10.23;;;;;;;14.34;75.34;100180.94;4990915;28;20045;-42
2021/10/17 10:59:08;;;;;;;20.45;8.98;;;;;;;14.35;74.97;100174.84;4986574;28;20058;-49
2021/10/17 11:01:56;;;;;;;21.90;9.02;;;;;;;14.28;75.13;100170.59;4991702;28;20046;-49
2021/10/17 11:04:56;;;;;;;19.23;9.48;;;;;;;14.27;75.64;100164.56;4985675;28;20485;-49
2021/10/17 11:07:29;;;;;;;24.05;9.68;;;;;;;14.30;75.14;100168.84;4982391;28;20058;-50
2021/10/17 11:10:16;;;;;;;24.00;10.80;;;;;;;14.29;75.30;100167.13;4990557;28;20100;-49
2021/10/17 11:12:45;;;;;;;18.48;8.45;;;;;;;14.23;75.43;100164.63;4985692;28;20490;-49
2021/10/17 11:15:14;;;;;;;16.92;8.18;;;;;;;14.20;75.67;100172.47;4990292;28;20042;-49
2021/10/17 11:18:04;;;;;;;17.40;7.97;;;;;;;14.10;75.58;100172.63;4989697;28;20054;-50
2021/10/17 11:20:38;;;;;;;13.25;6.60;;;;;;;14.07;74.58;100175.28;4981386;28;20132;-49